메인 페이지
METAR-TAF:

METAR-TAF

공항 :

볼고그라드, 러시아

위도: 48-47N, 경도: 044-22E, 고도: 145m

현재 날씨관측

예보는 12분 전, 23:00시(UTC)에 발표되었습니다.
서북서6kt
온도 9°C
습도 66%
기압 1022 hPa
시정 10km 이상
1500m 미만 상공 구름 및 적란운 없음

METAR: URWW 232300Z 29003MPS CAVOK 09/03 Q1022 R24/010070 TEMPO -TSRA BKN020CB

시각: 02:12 (23:12 UTC)

예보

예보는 3 시간 13분 전, 19:59시(UTC)에 발표되었습니다.
예보 대상 시간: 23일 21시부터 24일 06시까지 (UTC)
서북서6kt, 순간 최대 풍속 16kt
시정 10km 이상
고도 1100ft 상공 구름 많음
고도 2000ft 상공 구름 많음, 적란운.
일시적
23일 21시부터 24일 06시까지 (UTC)
6kt, 순간 최대 풍속 16kt
시정: 3100m
약한소나기
확률 40% :
일시적
23일 21시부터 24일 06시까지 (UTC)
뇌우, 약한비, 우박

TAF: URWW 231959Z 2321/2406 30003G08MPS 9999 BKN011 BKN020CB TEMPO 2321/2406 35003G08MPS 3100 -SHRA PROB40 TEMPO 2321/2406 -TSRAGR

4,000개 이상의 공항 관측 자료 및 예보 (METAR 및 TAF 보고).

지도상에서 검색 가능한 기상관측소가 노란 점과 빨간 점으로 표시되어 있습니다.

기상관측소 명을 보려면 표시 위로 마우스를 이동하세요.

날씨 관측과 예보를 보려면 클릭하세요.

지도 변경 : 확대하려면 엑스 표시가 있는 녹색 버튼, 축소하려면 빼기 표시가 있는 녹색 버튼, 다음 페이지의 지도를 보려면 녹색 화살표를 클릭하세요.


METAR-TAF: